Weather Models
Both GFS & NAM
00z 06z 12z 18z
24hr Precip
00z 06z 12z 18z
36hr Simulated radar
00z 06z 12z 18z
SKEWT Soundings
00z 12z
Current Conditions (Updated 9:15am on 9/22/17)
Temperature
 73°
0.63
78°  
70°  
0
10
20
30
40
50
60
70
80
90
100
Dew Point
55°
60°  
55°  
-20
-10
0
10
20
30
40
50
60
70
80
Heat Index
74°
79°  
72°  
30
40
50
60
70
80
90
100
110
120
130
Heat Index
Humidity
54%
65% 
54% 
0
10
20
30
40
50
60
70
80
90
100
Barometer
30.07
   Rising
30.07  
30.01  
28.00
28.30
28.60
28.90
29.20
29.50
29.80
30.10
30.40
30.70
31.00
Temperature
Dew Point
Humidity
Pressure
Wind
10mph
 NE
Daily Rain
.00
.05
.10
.15
.20
.25
.30
.35
.40
.45
.50
Rain Today
 0.00" 
Month Rain
0.00
0.50
1.00
1.50
2.00
2.50
3.00
3.50
4.00
4.50
5.00
Month Rain
 2.19" 
Year Rain
0.00
5.00
10.00
15.00
20.00
25.00
30.00
35.00
40.00
45.00
50.00
Year Rain
 31.97" 
Sun & Moon Data
Sunrise 6:50am
Sunset 6:59pm
Moonrise 9:05am
Moonset 8:37pm
Moon % 5%
Other Rain Data
Past Hour 0.00 Past 24 Hours 0.00
Past 3 Hours 0.00 Past 7 Days 0.26
Past 6 Hours 0.00
Cloud Height
4393


Current Front Map
Current Satellite map
7 Day Forecast
NWS Forecast for Philadelphia PA
National Weather Service Forecast for: Philadelphia PA
Issued by: National Weather Service Philadelphia, PA
Updated: 6:34 am EDT Sep 22, 2017

Philadelphia
 
Today

Today: Mostly sunny, with a high near 86. North wind 8 to 10 mph.
Mostly Sunny
Tonight

Tonight: Partly cloudy, with a low around 65. North wind 6 to 8 mph.
Partly Cloudy
Saturday

Saturday: Sunny, with a high near 86. North wind 6 to 8 mph.
Sunny
Saturday
Night
Saturday Night: Mostly clear, with a low around 68. North wind 3 to 8 mph.
Mostly Clear
Sunday

Sunday: Sunny, with a high near 90. North wind around 7 mph.
Sunny
Sunday
Night
Sunday Night: Mostly clear, with a low around 69.
Mostly Clear
Monday

Monday: Mostly sunny, with a high near 91.
Mostly Sunny
Monday
Night
Monday Night: Partly cloudy, with a low around 70.
Partly Cloudy
Tuesday

Tuesday: Partly sunny, with a high near 86.
Partly Sunny
Hi 86 °F Lo 65 °F Hi 86 °F Lo 68 °F Hi 90 °F Lo 69 °F Hi 91 °F Lo 70 °F Hi 86 °F

 

Today
 
Mostly sunny, with a high near 86. North wind 8 to 10 mph.
Tonight
 
Partly cloudy, with a low around 65. North wind 6 to 8 mph.
Saturday
 
Sunny, with a high near 86. North wind 6 to 8 mph.
Saturday Night
 
Mostly clear, with a low around 68. North wind 3 to 8 mph.
Sunday
 
Sunny, with a high near 90. North wind around 7 mph.
Sunday Night
 
Mostly clear, with a low around 69.
Monday
 
Mostly sunny, with a high near 91.
Monday Night
 
Partly cloudy, with a low around 70.
Tuesday
 
Partly sunny, with a high near 86.
Tuesday Night
 
Mostly cloudy, with a low around 67.
Wednesday
 
Partly sunny, with a high near 81.
Wednesday Night
 
Mostly cloudy, with a low around 65.
Thursday
 
Partly sunny, with a high near 82.

 

Forecast from NOAA-NWS for Philadelphia PA.

Area Weather Current Conditions
Nearby METAR Reports

KPHL - Philadelphia, Pennsylvania
Updated: Fri, 22-Sep-2017 8:54am EDT
Mostly Cloudy
Mostly Cloudy
 Wind from N
Wind: N 14 mph , 22 km/h
Temperature: 72°F , 22°C
Dew Point: 54°F , 12°C
Humidity: 53%
Barometer: 30.05 inHg , 1017.6 hPa
Clouds: Mostly Cloudy
Visibility: 10 miles , 16 km
Cloud details: Partly Cloudy 12000 ft
Mostly Cloudy 21000 ft
Mostly Cloudy 28000 ft
2017/09/22 12:54 KPHL 221254Z 01012KT 10SM SCT120 BKN210 BKN280 22/12 A3005 RMK AO2 SLP175 T02220122 $
KMPO - Mt. Pocono, Pennsylvania
Updated: Fri, 22-Sep-2017 8:53am EDT
Clear
Clear
 Wind from N
Wind: N 6 mph , 9 km/h
Temperature: 66°F , 19°C
Dew Point: 55°F , 13°C
Humidity: 68%
Barometer: 30.11 inHg , 1019.6 hPa
Clouds: Clear
Visibility: 10 miles , 16 km
2017/09/22 12:53 KMPO 221253Z AUTO 35005KT 10SM CLR 19/13 A3011 RMK AO2 SLP190 T01890128
 
KACY - Atlantic City, New Jersey
Updated: Fri, 22-Sep-2017 8:54am EDT
Clear
Clear
 Wind from NW
Wind: NW 10 mph , 17 km/h
Temperature: 70°F , 21°C
Dew Point: 57°F , 14°C
Humidity: 64%
Barometer: 30.02 inHg , 1016.6 hPa
Clouds: Clear
Visibility: 10 miles , 16 km
2017/09/22 12:54 KACY 221254Z 32009KT 10SM CLR 21/14 A3002 RMK AO2 SLP163 T02060144
KMIV - Millville, New Jersey
Updated: Fri, 22-Sep-2017 8:54am EDT
Clear
Clear
 Wind from NNW
Wind: NNW 7 mph , 11 km/h
Temperature: 70°F , 21°C
Dew Point: 61°F , 16°C
Humidity: 73%
Barometer: 30.04 inHg , 1017.3 hPa
Clouds: Clear
Visibility: 10 miles , 16 km
2017/09/22 12:54 KMIV 221254Z AUTO 33006KT 10SM CLR 21/16 A3004 RMK AO2 SLP169 T02110156 TSNO
 
KWWD - Wildwood, New Jersey
Updated: Fri, 22-Sep-2017 8:55am EDT
Clear
Clear
 Wind from N
Wind: N 8 mph , 13 km/h
Temperature: 70°F , 21°C
Dew Point: 57°F , 14°C
Humidity: 64%
Barometer: 30.03 inHg , 1016.9 hPa
Clouds: Clear
Visibility: 10 miles , 16 km
2017/09/22 12:55 KWWD 221255Z AUTO 35007KT 10SM CLR 21/14 A3003 RMK AO2 SLP172 T02110139
KDOV - Dover Afb, Delaware
Updated: Fri, 22-Sep-2017 8:58am EDT
Partly Cloudy
Partly Cloudy
 Wind from NNW
Wind: NNW 8 mph , 13 km/h
Temperature: 70°F , 21°C
Dew Point: 61°F , 16°C
Humidity: 73%
Barometer: 30.03 inHg , 1016.9 hPa
Clouds: Partly Cloudy
Visibility: 10 miles , 16 km
Cloud details: Partly Cloudy 25000 ft
2017/09/22 12:58 KDOV 221258Z 33007KT 10SM SCT250 21/16 A3003 RMK AO2A SLP172 $
Severe Weather Map
Recent Forum Post
[Philadelphia] Request for Philly Snow Data by JC February 14, 2017, 08:42:21 PM
[Philadelphia] 2016 -2017 Winter snow forecast by JC December 01, 2016, 04:56:31 AM
[Philadelphia] Winter forecast 2016-2017 by xyonist November 30, 2016, 01:14:08 PM
[Philadelphia] 102.7 last Saturday by JC August 20, 2016, 03:26:22 AM
[Philadelphia] 2015 -2016 Winter snow forecast by JC April 19, 2016, 09:42:40 AM
[Philadelphia] Latest Models on Weekend Storm (Photos) by JC January 23, 2016, 12:01:03 PM
[Philadelphia] Possible large snow storm for end of week ? by JC January 21, 2016, 09:17:47 AM
[Philadelphia] El Nino! by vicente6 September 16, 2015, 01:57:08 AM